KFMN/FMN METAR and TAF weather

Enter ICAO airport designator
Station Type Date Time Source
KFMN METAR 2021/08/04 18:53 UTC NOAA

KFMN 041853Z 00000KT 10SM CLR 30/09 A3019 RMK AO2 SLP154 T03000089


Station Type Date Time Source
KFMN Decoded METAR 2021/08/04 18:53 UTC NOAA

FARMINGTON FOUR CORNERS, NM, United States (KFMN) 36-45N 108-14W 1685M
Aug 04, 2021 - 02:53 PM EDT / 2021.08.04 1853 UTC
Wind: Calm:0
Visibility: 10 mile(s):0
Sky conditions: clear
Temperature: 86.0 F (30.0 C)
Dew Point: 48.0 F (8.9 C)
Relative Humidity: 26%
Pressure (altimeter): 30.19 in. Hg (1022 hPa)
ob: KFMN 041853Z 00000KT 10SM CLR 30/09 A3019 RMK AO2 SLP154 T03000089
cycle: 19

Station Type Date Time Source
KFMN TAF 2021/08/04 18:51 UTC NOAA

TAF KFMN 041749Z 0418/0518 28009KT P6SM SKC
FM041900 28020G28KT P6SM FEW100
FM050100 32010G16KT P6SM FEW100
FM050600 08010KT P6SM SKC

Example: see airport list